Time;durP1;ratioP1;P1;durP2;ratioP2;P2;SDS_P1;SDS_P2;PMS_P1;PMS_P2;Temp;Humidity;BMP_temperature;BMP_pressure;BME280_temperature;BME280_humidity;BME280_pressure;Samples;Min_cycle;Max_cycle;Signal;HPM_P1;HPM_P2
2023/05/14 00:01:40;;;;;;;44.35;33.58;;;15.00;99.90;;;;;;5056408;28;20055;-67
2023/05/14 00:04:06;;;;;;;42.08;32.63;;;14.90;99.90;;;;;;5056916;28;20059;-67
2023/05/14 00:06:32;;;;;;;46.75;35.05;;;14.90;99.90;;;;;;5073006;28;20029;-68
2023/05/14 00:08:57;;;;;;;44.38;33.25;;;14.90;99.90;;;;;;5056872;28;20151;-67
2023/05/14 00:11:23;;;;;;;42.75;33.70;;;14.80;99.90;;;;;;5056318;28;20441;-64
2023/05/14 00:13:49;;;;;;;50.60;34.70;;;14.80;99.90;;;;;;5072796;28;20040;-67
2023/05/14 00:16:15;;;;;;;44.58;33.97;;;14.90;99.90;;;;;;5056194;28;20037;-67
2023/05/14 00:18:41;;;;;;;42.85;33.05;;;14.80;99.90;;;;;;5056940;28;20301;-68
2023/05/14 00:21:07;;;;;;;46.60;33.70;;;14.90;99.90;;;;;;5056664;28;20081;-68
2023/05/14 00:23:32;;;;;;;45.03;35.72;;;14.80;99.90;;;;;;5056169;28;20109;-66
2023/05/14 00:25:58;;;;;;;42.92;32.55;;;14.80;99.90;;;;;;5055981;28;20041;-67
2023/05/14 00:28:24;;;;;;;45.15;34.17;;;14.70;99.90;;;;;;5056069;28;20032;-68
2023/05/14 00:30:50;;;;;;;44.65;33.17;;;14.70;99.90;;;;;;5056787;28;20037;-67
2023/05/14 00:33:16;;;;;;;46.83;34.08;;;14.70;99.90;;;;;;5056641;28;20056;-64
2023/05/14 00:35:42;;;;;;;48.08;34.40;;;14.70;99.90;;;;;;5055829;28;20071;-67
2023/05/14 00:38:15;;;;;;;41.40;32.63;;;14.70;99.90;;;;;;5072517;28;20057;-65
2023/05/14 00:40:44;;;;;;;43.65;33.85;;;14.70;99.60;;;;;;5055984;28;20106;-61
2023/05/14 00:43:11;;;;;;;38.17;32.08;;;14.80;98.50;;;;;;5056576;28;20112;-67
2023/05/14 00:45:37;;;;;;;42.10;32.47;;;14.70;97.10;;;;;;5072365;28;20037;-65
2023/05/14 00:48:04;;;;;;;45.00;32.58;;;14.70;97.40;;;;;;5072439;28;20129;-67
2023/05/14 00:50:30;;;;;;;40.58;31.52;;;14.70;96.70;;;;;;5056999;28;20097;-66
2023/05/14 00:52:56;;;;;;;43.78;31.98;;;14.60;97.40;;;;;;5056991;28;20340;-67
2023/05/14 00:55:22;;;;;;;44.25;33.10;;;14.60;97.60;;;;;;5056378;28;20025;-69
2023/05/14 00:57:49;;;;;;;41.50;30.90;;;14.60;97.40;;;;;;5055668;28;20441;-66
2023/05/14 01:00:16;;;;;;;43.90;33.20;;;14.60;95.30;;;;;;5056291;28;20112;-68
2023/05/14 01:02:41;;;;;;;42.53;32.65;;;14.50;96.10;;;;;;5055563;28;20033;-66
2023/05/14 01:05:08;;;;;;;42.50;32.97;;;14.50;97.30;;;;;;5071942;28;20088;-67
2023/05/14 01:07:56;;;;;;;44.70;34.35;;;14.40;98.30;;;;;;5056344;28;20036;-64
2023/05/14 01:10:37;;;;;;;42.38;32.25;;;14.50;98.00;;;;;;5056646;28;20029;-66
2023/05/14 01:13:17;;;;;;;48.47;34.35;;;14.50;96.70;;;;;;5056598;28;20087;-65
2023/05/14 01:15:45;;;;;;;43.42;31.90;;;14.40;97.10;;;;;;5056930;28;20120;-66
2023/05/14 01:18:15;;;;;;;41.53;33.10;;;14.40;97.50;;;;;;5072172;28;20032;-66
2023/05/14 01:20:41;;;;;;;44.28;34.05;;;14.40;97.10;;;;;;5056349;28;20036;-67
2023/05/14 01:23:07;;;;;;;45.92;34.75;;;14.40;97.30;;;;;;5038779;28;20423;-66
2023/05/14 01:25:34;;;;;;;47.00;33.28;;;14.30;99.00;;;;;;5056257;28;20033;-67
2023/05/14 01:28:16;;;;;;;48.55;33.25;;;14.30;98.50;;;;;;5056180;28;20033;-66
2023/05/14 01:30:55;;;;;;;43.93;32.63;;;14.40;96.50;;;;;;5055393;28;20107;-66
2023/05/14 01:33:26;;;;;;;39.03;33.40;;;14.30;97.50;;;;;;5072072;28;20021;-66
2023/05/14 01:35:53;;;;;;;42.92;33.20;;;14.30;96.90;;;;;;5056179;28;20379;-66
2023/05/14 01:38:20;;;;;;;41.88;32.85;;;14.30;97.80;;;;;;5056002;28;20052;-66
2023/05/14 01:40:47;;;;;;;42.42;34.35;;;14.20;98.10;;;;;;5056050;28;20033;-65
2023/05/14 01:43:15;;;;;;;45.40;33.22;;;14.10;98.70;;;;;;5071884;28;20037;-65
2023/05/14 01:45:41;;;;;;;42.95;32.83;;;14.10;99.90;;;;;;5071907;28;20036;-67
2023/05/14 01:48:07;;;;;;;45.90;34.85;;;14.10;99.70;;;;;;5057940;28;20086;-67
2023/05/14 01:50:33;;;;;;;43.80;33.33;;;14.00;99.90;;;;;;5059539;28;20026;-68
2023/05/14 01:52:58;;;;;;;43.10;33.33;;;14.00;99.90;;;;;;5059456;28;20059;-66
2023/05/14 01:55:26;;;;;;;44.10;32.78;;;14.10;99.40;;;;;;5058839;28;20079;-67
2023/05/14 01:57:53;;;;;;;42.58;35.13;;;14.10;99.90;;;;;;5075492;28;20048;-67
2023/05/14 02:00:21;;;;;;;43.10;32.90;;;14.00;99.40;;;;;;5059385;28;20038;-66
2023/05/14 02:02:47;;;;;;;47.80;34.67;;;14.00;99.70;;;;;;5059928;28;20033;-66
2023/05/14 02:05:13;;;;;;;45.20;33.65;;;14.00;99.90;;;;;;5058419;28;20439;-64
2023/05/14 02:07:38;;;;;;;39.25;32.60;;;14.00;99.50;;;;;;5075730;28;20095;-64
2023/05/14 02:10:05;;;;;;;38.95;31.63;;;13.90;99.10;;;;;;5059143;28;20067;-66
2023/05/14 02:12:31;;;;;;;40.42;33.47;;;13.90;99.60;;;;;;5058429;28;20041;-67
2023/05/14 02:14:57;;;;;;;43.10;32.65;;;13.90;99.90;;;;;;5058557;28;20033;-67
2023/05/14 02:17:25;;;;;;;46.33;33.08;;;13.80;99.90;;;;;;5075023;28;20029;-67
2023/05/14 02:19:51;;;;;;;41.90;32.85;;;13.80;99.90;;;;;;5059030;28;20044;-66
2023/05/14 02:22:17;;;;;;;42.92;31.95;;;13.70;99.90;;;;;;5058757;28;20411;-67
2023/05/14 02:24:43;;;;;;;42.20;31.38;;;13.80;99.90;;;;;;5075051;28;20060;-67
2023/05/14 02:27:11;;;;;;;44.38;32.40;;;13.90;99.70;;;;;;5075495;28;20036;-67
2023/05/14 02:29:37;;;;;;;40.10;30.17;;;13.80;99.60;;;;;;5058140;28;20037;-67
2023/05/14 02:32:03;;;;;;;40.60;30.95;;;13.90;99.10;;;;;;5074732;28;20173;-67
2023/05/14 02:34:29;;;;;;;42.65;32.05;;;13.80;99.90;;;;;;5058431;28;20086;-67
2023/05/14 02:36:55;;;;;;;39.40;30.35;;;13.90;99.90;;;;;;5041579;28;20115;-66
2023/05/14 02:39:20;;;;;;;42.88;31.30;;;13.80;99.60;;;;;;5074771;28;20029;-68
2023/05/14 02:41:46;;;;;;;43.38;31.35;;;13.70;99.90;;;;;;5058733;28;20017;-68
2023/05/14 02:44:12;;;;;;;40.72;31.13;;;13.60;99.90;;;;;;5074601;28;20033;-66
2023/05/14 02:46:41;;;;;;;38.83;29.58;;;13.70;99.90;;;;;;5058604;28;20032;-67
2023/05/14 02:49:07;;;;;;;41.17;31.63;;;13.70;99.90;;;;;;5058590;28;20146;-65
2023/05/14 02:51:33;;;;;;;41.17;31.77;;;13.70;99.90;;;;;;5058577;28;20083;-66
2023/05/14 02:53:59;;;;;;;41.80;30.60;;;13.70;99.50;;;;;;5058543;28;20033;-66
2023/05/14 02:56:25;;;;;;;42.72;30.83;;;13.70;99.90;;;;;;5074200;28;20036;-66
2023/05/14 02:58:51;;;;;;;42.58;32.30;;;13.60;99.90;;;;;;5056838;28;20029;-66
2023/05/14 03:01:17;;;;;;;38.13;30.20;;;13.60;99.90;;;;;;5058274;28;20052;-67
2023/05/14 03:03:43;;;;;;;38.33;31.08;;;13.60;99.90;;;;;;5058143;28;20357;-67
2023/05/14 03:06:09;;;;;;;43.33;31.48;;;13.60;99.90;;;;;;5058291;28;20037;-67
2023/05/14 03:08:35;;;;;;;44.03;29.75;;;13.60;99.90;;;;;;5074070;28;20036;-68
2023/05/14 03:11:01;;;;;;;42.63;30.40;;;13.50;99.90;;;;;;5058227;28;20044;-67
2023/05/14 03:13:27;;;;;;;38.35;30.67;;;13.50;99.90;;;;;;5073854;28;20047;-66
2023/05/14 03:15:53;;;;;;;38.10;31.02;;;13.50;99.90;;;;;;5073946;28;20116;-66
2023/05/14 03:18:20;;;;;;;43.63;32.20;;;13.50;99.90;;;;;;5057320;28;20041;-66
2023/05/14 03:20:46;;;;;;;43.03;32.30;;;13.50;99.90;;;;;;5073821;28;20052;-67
2023/05/14 03:23:12;;;;;;;39.90;30.52;;;13.40;99.90;;;;;;5057372;28;20067;-66
2023/05/14 03:25:38;;;;;;;39.08;30.45;;;13.40;99.90;;;;;;5024047;28;20051;-66
2023/05/14 03:28:04;;;;;;;39.47;30.70;;;13.30;99.90;;;;;;5073647;28;20116;-66
2023/05/14 03:30:29;;;;;;;42.22;31.20;;;13.30;99.90;;;;;;5056975;28;20099;-66
2023/05/14 03:32:56;;;;;;;44.45;33.30;;;13.30;99.90;;;;;;5073608;28;20024;-66
2023/05/14 03:35:22;;;;;;;45.80;31.48;;;13.30;99.90;;;;;;5040323;28;20028;-66
2023/05/14 03:37:48;;;;;;;41.85;30.63;;;13.30;99.90;;;;;;5056836;28;20423;-67
2023/05/14 03:40:14;;;;;;;46.33;33.03;;;13.30;99.90;;;;;;5056913;28;20061;-66
2023/05/14 03:42:42;;;;;;;43.00;31.10;;;13.40;99.90;;;;;;5073388;28;20312;-66
2023/05/14 03:45:09;;;;;;;42.58;31.98;;;13.40;99.90;;;;;;5073974;28;20411;-65
2023/05/14 03:47:35;;;;;;;40.47;30.10;;;13.30;99.90;;;;;;5056712;28;20044;-66
2023/05/14 03:50:01;;;;;;;41.47;30.42;;;13.30;99.90;;;;;;5073257;28;20463;-65
2023/05/14 03:52:27;;;;;;;41.22;30.23;;;13.30;99.90;;;;;;5057022;28;20473;-66
2023/05/14 03:54:53;;;;;;;42.22;31.15;;;13.30;99.90;;;;;;5057024;28;20052;-65
2023/05/14 03:57:20;;;;;;;42.13;30.85;;;13.20;99.90;;;;;;5072930;28;20112;-65
2023/05/14 03:59:45;;;;;;;42.13;30.70;;;13.20;99.90;;;;;;5056978;28;20025;-66
2023/05/14 04:02:12;;;;;;;40.95;30.05;;;13.20;99.90;;;;;;5072523;28;20415;-65
2023/05/14 04:04:38;;;;;;;40.08;29.65;;;13.20;99.90;;;;;;5056498;28;20130;-65
2023/05/14 04:07:04;;;;;;;39.97;30.15;;;13.20;99.90;;;;;;5056411;28;20033;-66
2023/05/14 04:09:30;;;;;;;42.75;29.13;;;13.20;99.90;;;;;;5039499;28;20095;-65
2023/05/14 04:11:56;;;;;;;41.30;31.02;;;13.10;99.90;;;;;;5056198;28;20025;-65
2023/05/14 04:14:22;;;;;;;45.40;31.30;;;13.10;99.90;;;;;;5072872;28;20028;-65
2023/05/14 04:16:48;;;;;;;42.15;30.83;;;13.10;99.90;;;;;;5072766;28;20484;-65
2023/05/14 04:19:14;;;;;;;41.83;31.90;;;13.20;99.90;;;;;;5072756;28;20040;-66
2023/05/14 04:21:40;;;;;;;40.70;30.77;;;13.20;99.90;;;;;;5072783;28;20024;-65
2023/05/14 04:24:07;;;;;;;42.28;30.88;;;13.20;99.90;;;;;;5056882;28;20040;-66
2023/05/14 04:26:32;;;;;;;40.15;28.85;;;13.20;99.90;;;;;;5072948;28;20282;-65
2023/05/14 04:29:01;;;;;;;36.15;28.63;;;13.10;99.90;;;;;;5056027;28;20178;-67
2023/05/14 04:31:31;;;;;;;37.72;28.05;;;13.10;99.90;;;;;;5056390;28;20037;-65
2023/05/14 04:33:56;;;;;;;44.67;29.48;;;13.10;99.90;;;;;;5071858;28;20049;-65
2023/05/14 04:36:22;;;;;;;39.33;28.92;;;13.20;99.90;;;;;;5055913;28;20163;-67
2023/05/14 04:38:48;;;;;;;39.30;28.15;;;13.20;99.90;;;;;;5056772;28;20040;-68
2023/05/14 04:41:14;;;;;;;40.30;28.77;;;13.20;99.90;;;;;;5055919;28;20047;-65
2023/05/14 04:43:40;;;;;;;40.47;26.50;;;13.20;99.90;;;;;;5055834;28;20303;-65
2023/05/14 04:46:06;;;;;;;38.28;28.00;;;13.20;99.90;;;;;;5055994;28;20116;-66
2023/05/14 04:48:32;;;;;;;42.50;28.15;;;13.20;99.90;;;;;;5072544;28;20115;-65
2023/05/14 04:50:57;;;;;;;41.95;29.45;;;13.30;99.90;;;;;;5056357;28;20412;-63
2023/05/14 04:53:23;;;;;;;43.63;30.67;;;13.20;99.90;;;;;;5072398;28;20051;-65
2023/05/14 04:55:49;;;;;;;44.03;31.10;;;13.20;99.90;;;;;;5056665;28;20044;-65
2023/05/14 04:58:15;;;;;;;45.25;31.45;;;13.30;99.90;;;;;;5072572;28;20099;-66
2023/05/14 05:00:41;;;;;;;51.10;35.22;;;13.30;99.90;;;;;;5056621;28;20472;-66
2023/05/14 05:03:07;;;;;;;48.33;34.25;;;13.40;99.90;;;;;;5072625;28;20043;-66
2023/05/14 05:05:34;;;;;;;52.72;35.05;;;13.50;99.90;;;;;;5055547;28;20315;-68
2023/05/14 05:08:00;;;;;;;55.42;34.55;;;13.50;99.90;;;;;;5056893;28;20029;-63
2023/05/14 05:10:25;;;;;;;49.33;32.63;;;13.50;99.90;;;;;;5055482;28;20132;-67
2023/05/14 05:12:51;;;;;;;54.90;33.67;;;13.50;99.90;;;;;;5055456;28;20064;-68
2023/05/14 05:15:17;;;;;;;51.10;32.78;;;13.50;99.90;;;;;;5056319;28;20086;-68
2023/05/14 05:17:43;;;;;;;52.20;33.38;;;13.50;99.90;;;;;;5056163;28;20078;-69
2023/05/14 05:20:10;;;;;;;55.55;34.63;;;13.50;99.90;;;;;;5056048;28;20052;-68
2023/05/14 05:22:36;;;;;;;47.08;33.50;;;13.60;99.90;;;;;;5058229;28;20037;-68
2023/05/14 05:25:05;;;;;;;54.47;34.53;;;13.60;99.90;;;;;;5059706;28;20036;-65
2023/05/14 05:27:34;;;;;;;52.05;34.10;;;13.60;99.90;;;;;;5060105;28;20041;-67
2023/05/14 05:30:01;;;;;;;53.92;34.88;;;13.50;99.90;;;;;;5076059;28;20067;-67
2023/05/14 05:32:26;;;;;;;55.58;35.75;;;13.50;99.90;;;;;;5075719;28;20037;-68
2023/05/14 05:34:52;;;;;;;57.03;35.28;;;13.50;99.90;;;;;;5060034;28;20025;-68
2023/05/14 05:37:18;;;;;;;55.35;33.95;;;13.60;99.90;;;;;;5059272;28;20111;-66
2023/05/14 05:39:44;;;;;;;56.85;34.60;;;13.50;99.90;;;;;;5075824;28;20120;-69
2023/05/14 05:42:13;;;;;;;52.03;33.90;;;13.40;99.90;;;;;;5059699;28;20068;-65
2023/05/14 05:44:39;;;;;;;54.60;34.40;;;13.30;99.90;;;;;;5059780;28;20040;-68
2023/05/14 05:47:05;;;;;;;54.33;34.90;;;13.30;99.90;;;;;;5042252;28;20397;-67
2023/05/14 05:49:31;;;;;;;57.80;34.92;;;13.40;99.90;;;;;;5059685;28;20112;-65
2023/05/14 05:51:57;;;;;;;53.22;35.95;;;13.50;99.90;;;;;;5059721;28;20428;-66
2023/05/14 05:54:26;;;;;;;54.72;35.05;;;13.60;99.90;;;;;;5059633;28;20428;-68
2023/05/14 05:56:52;;;;;;;54.53;34.90;;;13.60;99.90;;;;;;5042160;28;20033;-68
2023/05/14 05:59:17;;;;;;;57.58;35.35;;;13.70;99.90;;;;;;5059503;28;20079;-65
2023/05/14 06:01:43;;;;;;;56.38;35.42;;;13.60;99.90;;;;;;5058637;28;20413;-68
2023/05/14 06:04:09;;;;;;;50.58;33.67;;;13.60;99.90;;;;;;5075025;28;20060;-69
2023/05/14 06:06:35;;;;;;;59.85;35.58;;;13.60;99.90;;;;;;5059237;28;20300;-65
2023/05/14 06:09:01;;;;;;;56.22;35.33;;;13.80;99.90;;;;;;5059297;28;20083;-64
2023/05/14 06:11:27;;;;;;;54.72;33.33;;;13.90;99.90;;;;;;5059639;28;20048;-64
2023/05/14 06:13:53;;;;;;;51.22;33.00;;;13.90;99.90;;;;;;5058559;28;20037;-67
2023/05/14 06:16:19;;;;;;;53.10;33.53;;;14.00;99.90;;;;;;5059200;28;20098;-65
2023/05/14 06:18:45;;;;;;;52.72;33.78;;;14.10;99.90;;;;;;5058520;28;20112;-61
2023/05/14 06:21:11;;;;;;;52.47;34.25;;;14.20;99.90;;;;;;5074955;28;20029;-64
2023/05/14 06:23:37;;;;;;;52.10;32.42;;;14.30;99.90;;;;;;5074985;28;20044;-66
2023/05/14 06:26:03;;;;;;;52.95;33.22;;;14.30;99.90;;;;;;5074968;28;20478;-65
2023/05/14 06:28:29;;;;;;;53.17;33.15;;;14.40;99.90;;;;;;5058965;28;20040;-64
2023/05/14 06:30:54;;;;;;;48.55;33.30;;;14.70;99.90;;;;;;5058107;28;20090;-61
2023/05/14 06:33:28;;;;;;;52.25;33.60;;;14.90;98.40;;;;;;5057454;28;20093;-62
2023/05/14 06:35:54;;;;;;;49.22;33.45;;;15.10;95.10;;;;;;5058611;28;20044;-62
2023/05/14 06:38:20;;;;;;;55.05;34.45;;;15.30;93.70;;;;;;5058984;28;20025;-63
2023/05/14 06:40:46;;;;;;;47.50;31.95;;;15.40;91.70;;;;;;5058815;28;20025;-65
2023/05/14 06:43:11;;;;;;;49.50;33.13;;;15.60;83.80;;;;;;5058554;28;20041;-66
2023/05/14 06:45:37;;;;;;;44.67;32.03;;;15.60;87.40;;;;;;5058717;28;20041;-64
2023/05/14 06:48:03;;;;;;;49.60;32.78;;;15.50;87.70;;;;;;5074423;28;20049;-65
2023/05/14 06:50:29;;;;;;;50.03;31.45;;;15.60;85.50;;;;;;5074440;28;20131;-66
2023/05/14 06:52:55;;;;;;;44.65;31.77;;;15.60;88.80;;;;;;5057812;28;20123;-65
2023/05/14 06:55:21;;;;;;;46.00;31.65;;;15.70;84.60;;;;;;5058563;28;20346;-65
2023/05/14 06:57:47;;;;;;;44.75;29.70;;;15.80;81.60;;;;;;5058440;28;20393;-66
2023/05/14 07:00:13;;;;;;;40.20;30.65;;;16.00;78.60;;;;;;5058319;28;20039;-64
2023/05/14 07:02:39;;;;;;;44.22;31.98;;;16.10;75.00;;;;;;5057643;28;20040;-67
2023/05/14 07:05:05;;;;;;;45.38;32.08;;;16.00;67.40;;;;;;5058155;28;20140;-66
2023/05/14 07:07:31;;;;;;;40.05;30.67;;;16.00;71.80;;;;;;5057625;28;20041;-62
2023/05/14 07:09:57;;;;;;;42.25;31.95;;;16.10;68.80;;;;;;5040929;28;20311;-63
2023/05/14 07:12:22;;;;;;;39.25;32.17;;;16.10;56.30;;;;;;5073806;28;20037;-67
2023/05/14 07:14:49;;;;;;;45.35;31.73;;;16.10;57.80;;;;;;5074441;28;20060;-61
2023/05/14 07:17:15;;;;;;;41.72;29.40;;;16.10;60.10;;;;;;5058264;28;20088;-67
2023/05/14 07:19:41;;;;;;;41.00;28.13;;;16.20;58.90;;;;;;5073854;28;20060;-66
2023/05/14 07:22:06;;;;;;;36.65;28.05;;;16.20;54.00;;;;;;5057285;28;20033;-66
2023/05/14 07:24:32;;;;;;;38.72;27.50;;;16.40;52.40;;;;;;5057832;28;20114;-68
2023/05/14 07:26:58;;;;;;;34.75;28.02;;;16.60;45.80;;;;;;5057747;28;20039;-66
2023/05/14 07:29:24;;;;;;;38.60;28.25;;;16.70;43.30;;;;;;5057577;28;20339;-66
2023/05/14 07:31:50;;;;;;;34.20;27.38;;;16.80;36.20;;;;;;5073468;28;20081;-65
2023/05/14 07:34:17;;;;;;;32.45;25.55;;;17.00;27.00;;;;;;5056830;28;20112;-66
2023/05/14 07:36:43;;;;;;;31.52;25.00;;;17.00;22.40;;;;;;5058188;28;20400;-67
2023/05/14 07:39:09;;;;;;;28.98;23.38;;;16.80;22.40;;;;;;5073347;28;20048;-65
2023/05/14 07:41:35;;;;;;;32.05;24.83;;;16.90;26.90;;;;;;5057466;28;20043;-64
2023/05/14 07:44:01;;;;;;;29.65;25.35;;;16.90;13.50;;;;;;5057462;28;20404;-66
2023/05/14 07:46:27;;;;;;;31.90;26.20;;;16.80;16.90;;;;;;5057613;28;20439;-65
2023/05/14 07:48:52;;;;;;;32.72;26.20;;;16.90;21.70;;;;;;5057409;28;20068;-65
2023/05/14 07:51:18;;;;;;;32.50;26.55;;;16.90;22.50;;;;;;5057359;28;20064;-62
2023/05/14 07:53:44;;;;;;;40.38;27.67;;;17.10;15.50;;;;;;5073013;28;20309;-67
2023/05/14 07:56:10;;;;;;;35.85;29.23;;;17.20;15.90;;;;;;5057207;28;20466;-68
2023/05/14 07:58:36;;;;;;;30.27;24.42;;;17.40;14.20;;;;;;5056429;28;20033;-68
2023/05/14 08:01:05;;;;;;;33.15;26.45;;;17.60;1.60;;;;;;5057097;28;20040;-67
2023/05/14 08:03:32;;;;;;;34.45;27.95;;;18.10;1.00;;;;;;5072777;28;20308;-64
2023/05/14 08:05:58;;;;;;;37.33;30.02;;;18.40;1.00;;;;;;5056727;28;20041;-64
2023/05/14 08:08:24;;;;;;;34.15;29.55;;;18.60;1.00;;;;;;5072857;28;20037;-63
2023/05/14 08:10:50;;;;;;;34.47;26.98;;;18.70;1.00;;;;;;5073044;28;20043;-64
2023/05/14 08:13:16;;;;;;;38.33;27.90;;;18.80;1.00;;;;;;5056248;28;20033;-67
2023/05/14 08:15:41;;;;;;;34.08;28.27;;;19.00;1.00;;;;;;5056190;28;20270;-66
2023/05/14 08:18:07;;;;;;;36.03;29.77;;;18.70;1.00;;;;;;5056765;28;20052;-65
2023/05/14 08:20:33;;;;;;;32.83;28.83;;;18.60;1.00;;;;;;5072714;28;20021;-67
2023/05/14 08:22:59;;;;;;;38.60;30.60;;;18.50;1.00;;;;;;5072521;28;20124;-62
2023/05/14 08:25:25;;;;;;;38.35;30.50;;;18.50;1.00;;;;;;5056911;28;20037;-66
2023/05/14 08:27:52;;;;;;;37.13;30.33;;;18.30;1.00;;;;;;5056607;28;20457;-66
2023/05/14 08:30:18;;;;;;;38.10;31.10;;;18.10;1.00;;;;;;5055974;28;20041;-66
2023/05/14 08:32:47;;;;;;;36.28;30.60;;;18.20;1.00;;;;;;5072531;28;20423;-67
2023/05/14 08:35:13;;;;;;;36.08;29.42;;;18.00;1.00;;;;;;5024055;28;20344;-66
2023/05/14 08:37:38;;;;;;;36.78;31.17;;;18.20;1.00;;;;;;5056580;28;20100;-62
2023/05/14 08:40:06;;;;;;;33.22;28.38;;;18.50;1.00;;;;;;5056021;28;20025;-68
2023/05/14 08:42:33;;;;;;;31.23;27.42;;;18.20;1.00;;;;;;5055869;28;20322;-64
2023/05/14 08:45:04;;;;;;;32.97;27.58;;;18.00;1.00;;;;;;5039275;28;20419;-68
2023/05/14 08:47:30;;;;;;;32.88;27.27;;;18.00;1.00;;;;;;5072392;28;20062;-65
2023/05/14 08:50:07;;;;;;;31.80;26.17;;;18.00;1.00;;;;;;5056466;28;20107;-66
2023/05/14 08:52:33;;;;;;;36.17;28.60;;;18.10;1.00;;;;;;5056425;28;20040;-65
2023/05/14 08:55:02;;;;;;;32.78;28.35;;;18.20;1.00;;;;;;5056303;28;20025;-63
2023/05/14 08:57:30;;;;;;;31.05;27.15;;;18.50;1.00;;;;;;5058269;28;20053;-64
2023/05/14 08:59:56;;;;;;;33.47;27.33;;;18.70;1.00;;;;;;5076557;28;20048;-64
2023/05/14 09:02:28;;;;;;;28.38;25.27;;;18.90;1.00;;;;;;5060435;28;20033;-63
2023/05/14 09:04:57;;;;;;;29.08;24.92;;;18.80;1.00;;;;;;5076314;28;20056;-65
2023/05/14 09:07:23;;;;;;;31.00;27.30;;;18.70;1.00;;;;;;5076230;28;20037;-64
2023/05/14 09:09:50;;;;;;;35.05;27.55;;;18.70;1.00;;;;;;5076465;28;20111;-65
2023/05/14 09:12:16;;;;;;;31.38;27.38;;;18.70;1.00;;;;;;5060220;28;20033;-64
2023/05/14 09:14:42;;;;;;;33.53;29.15;;;18.60;1.00;;;;;;5059592;28;20044;-66
2023/05/14 09:17:08;;;;;;;33.97;28.98;;;18.50;1.00;;;;;;5076200;28;20328;-66
2023/05/14 09:19:34;;;;;;;33.63;29.02;;;18.50;1.00;;;;;;5076182;28;20033;-66
2023/05/14 09:22:00;;;;;;;34.53;28.80;;;18.60;1.00;;;;;;5060117;28;20277;-65
2023/05/14 09:24:29;;;;;;;36.60;29.10;;;18.50;1.00;;;;;;5060116;28;20033;-65
2023/05/14 09:26:57;;;;;;;32.35;26.38;;;18.60;1.00;;;;;;5060476;28;20028;-65
2023/05/14 09:29:27;;;;;;;30.58;27.30;;;18.60;1.00;;;;;;5059973;28;20091;-61
2023/05/14 09:31:54;;;;;;;35.80;28.23;;;18.60;1.00;;;;;;5060109;28;20037;-65
2023/05/14 09:34:28;;;;;;;30.65;26.95;;;18.60;1.00;;;;;;5059786;28;20096;-64
2023/05/14 09:37:03;;;;;;;32.95;27.60;;;18.50;1.00;;;;;;5059864;28;20112;-65
2023/05/14 09:39:29;;;;;;;31.52;26.95;;;18.60;1.00;;;;;;5059848;28;20036;-67
2023/05/14 09:41:55;;;;;;;31.33;26.23;;;18.70;1.00;;;;;;5059720;28;20408;-62
2023/05/14 09:44:22;;;;;;;31.88;25.98;;;18.60;1.00;;;;;;5075683;28;20102;-68
2023/05/14 09:46:48;;;;;;;28.67;24.70;;;18.70;1.00;;;;;;5075489;28;20079;-64
2023/05/14 09:49:14;;;;;;;30.67;27.35;;;18.80;1.00;;;;;;5075505;28;20028;-66
2023/05/14 09:51:40;;;;;;;28.60;25.45;;;19.00;1.00;;;;;;5059579;28;20032;-67
2023/05/14 09:54:07;;;;;;;29.42;25.63;;;19.20;1.00;;;;;;5059479;28;20032;-65
2023/05/14 09:56:35;;;;;;;30.02;25.17;;;19.20;1.00;;;;;;5059523;28;20021;-63
2023/05/14 09:59:01;;;;;;;31.33;27.92;;;19.50;1.00;;;;;;5075292;28;20036;-67
2023/05/14 10:01:29;;;;;;;31.70;26.83;;;19.70;1.00;;;;;;5058724;28;20037;-66
2023/05/14 10:03:55;;;;;;;30.48;27.27;;;19.90;1.00;;;;;;5059268;28;20100;-64
2023/05/14 10:06:35;;;;;;;37.88;28.98;;;20.10;1.00;;;;;;5059979;28;20052;-63
2023/05/14 10:09:04;;;;;;;30.45;26.80;;;20.00;1.00;;;;;;5059031;28;20025;-63
2023/05/14 10:11:37;;;;;;;29.85;26.65;;;20.00;1.00;;;;;;5075299;28;20024;-67
2023/05/14 10:14:08;;;;;;;31.27;26.65;;;19.80;1.00;;;;;;5058403;28;20101;-63
2023/05/14 10:16:39;;;;;;;31.33;26.90;;;19.90;1.00;;;;;;5059124;28;20036;-67
2023/05/14 10:19:10;;;;;;;31.00;27.02;;;19.80;1.00;;;;;;5059196;28;20126;-65
2023/05/14 10:21:39;;;;;;;31.50;27.70;;;19.70;1.00;;;;;;5059120;28;20024;-65
2023/05/14 10:24:06;;;;;;;33.53;29.02;;;19.60;1.00;;;;;;5059294;28;20278;-63
2023/05/14 10:26:38;;;;;;;33.45;28.85;;;19.70;1.00;;;;;;5058364;28;20122;-66
2023/05/14 10:29:05;;;;;;;33.33;27.55;;;19.70;1.00;;;;;;5059176;28;20040;-67
2023/05/14 10:31:53;;;;;;;30.60;27.27;;;19.70;1.00;;;;;;5058996;28;20389;-64
2023/05/14 10:34:39;;;;;;;31.17;25.25;;;19.40;1.00;;;;;;5058226;28;20106;-64
2023/05/14 10:37:10;;;;;;;32.33;27.20;;;19.60;1.00;;;;;;5074998;28;20103;-64
2023/05/14 10:39:51;;;;;;;30.35;26.25;;;19.80;1.00;;;;;;5058993;28;20032;-65
2023/05/14 10:42:42;;;;;;;29.58;25.65;;;20.40;1.00;;;;;;5058812;28;20068;-65
2023/05/14 10:45:13;;;;;;;29.30;25.60;;;20.70;1.00;;;;;;5058046;28;20045;-65
2023/05/14 10:47:42;;;;;;;28.73;24.85;;;20.80;1.00;;;;;;5059040;28;20021;-64
2023/05/14 10:50:11;;;;;;;26.70;23.55;;;20.90;1.00;;;;;;5058822;28;20412;-62
2023/05/14 10:52:39;;;;;;;24.42;21.77;;;21.00;1.00;;;;;;5058619;28;20381;-63
2023/05/14 10:55:09;;;;;;;26.02;22.40;;;20.80;1.00;;;;;;5074615;28;20037;-63
2023/05/14 10:57:37;;;;;;;24.08;18.92;;;21.70;1.00;;;;;;5058586;28;20102;-69
2023/05/14 11:00:09;;;;;;;23.48;20.77;;;23.00;1.00;;;;;;5058597;28;20301;-66
2023/05/14 11:02:36;;;;;;;26.92;20.77;;;24.30;99.90;;;;;;5058506;28;20400;-67
2023/05/14 11:05:03;;;;;;;19.90;17.80;;;24.80;1.00;;;;;;5058345;28;20075;-66
2023/05/14 11:07:40;;;;;;;23.85;20.42;;;25.80;99.90;;;;;;5074261;28;20084;-67
2023/05/14 11:10:14;;;;;;;21.40;19.15;;;26.50;1.00;;;;;;5074363;28;20150;-67
2023/05/14 11:12:42;;;;;;;22.33;18.98;;;26.70;99.90;;;;;;5058223;28;20049;-63
2023/05/14 11:15:19;;;;;;;21.00;18.80;;;26.80;1.00;;;;;;5057447;28;20112;-63
2023/05/14 11:17:46;;;;;;;18.67;16.65;;;27.30;1.00;;;;;;5058032;28;20112;-66
2023/05/14 11:20:13;;;;;;;20.58;17.05;;;28.20;1.00;;;;;;5057554;28;20021;-65
2023/05/14 11:22:40;;;;;;;17.65;15.77;;;28.70;1.00;;;;;;5057556;28;20041;-63
2023/05/14 11:25:08;;;;;;;19.88;17.95;;;29.40;99.90;;;;;;5057248;28;20087;-69
2023/05/14 11:27:35;;;;;;;21.50;18.85;;;29.80;99.90;;;;;;5057750;28;20033;-65
2023/05/14 11:30:02;;;;;;;18.90;16.58;;;29.20;1.00;;;;;;5057917;28;20234;-66
2023/05/14 11:32:30;;;;;;;18.70;16.42;;;29.20;99.90;;;;;;5057652;28;20400;-68
2023/05/14 11:34:56;;;;;;;19.40;15.32;;;29.70;1.00;;;;;;5057787;28;20100;-65
2023/05/14 11:37:22;;;;;;;18.85;16.92;;;30.10;1.00;;;;;;5057606;28;20162;-66
2023/05/14 11:39:53;;;;;;;16.92;14.85;;;30.60;1.00;;;;;;5073617;28;20043;-67
2023/05/14 11:42:21;;;;;;;17.27;15.63;;;30.70;1.00;;;;;;5057567;28;20021;-65
2023/05/14 11:44:48;;;;;;;16.45;14.65;;;30.30;1.00;;;;;;5073569;28;20021;-65
2023/05/14 11:47:15;;;;;;;17.67;15.70;;;30.90;1.00;;;;;;5057437;28;20369;-67
2023/05/14 11:49:41;;;;;;;20.55;15.48;;;31.70;99.90;;;;;;5057351;28;20407;-63
2023/05/14 11:52:13;;;;;;;17.98;16.27;;;32.10;1.00;;;;;;5057461;28;20067;-66
2023/05/14 11:54:42;;;;;;;16.90;15.18;;;32.20;1.00;;;;;;5057218;28;20422;-68
2023/05/14 11:57:15;;;;;;;17.10;14.57;;;32.30;1.00;;;;;;5057310;28;20033;-68
2023/05/14 11:59:41;;;;;;;16.42;14.68;;;32.50;1.00;;;;;;5057209;28;20021;-62
2023/05/14 12:02:11;;;;;;;16.65;14.80;;;32.40;1.00;;;;;;5057136;28;20074;-68
2023/05/14 12:04:37;;;;;;;18.08;13.35;;;32.90;1.00;;;;;;5072969;28;20319;-64
2023/05/14 12:07:10;;;;;;;13.35;10.68;;;33.20;99.90;;;;;;5056922;28;20021;-64
2023/05/14 12:09:42;;;;;;;14.30;13.00;;;32.80;99.90;;;;;;5056745;28;20068;-67
2023/05/14 12:12:09;;;;;;;;;;;33.20;99.90;;;;;;5073071;28;20368;-67
2023/05/14 12:14:41;;;;;;;13.50;11.43;;;33.00;99.90;;;;;;5056095;28;19963;-67
2023/05/14 12:17:16;;;;;;;17.27;13.68;;;33.40;99.90;;;;;;5056872;28;20503;-65
2023/05/14 12:19:43;;;;;;;16.08;14.60;;;33.90;99.90;;;;;;5057523;28;20040;-62
2023/05/14 12:22:17;;;;;;;14.02;10.98;;;33.60;99.90;;;;;;5072931;28;20102;-65
2023/05/14 12:24:55;;;;;;;15.43;12.27;;;33.00;99.90;;;;;;5056932;28;20300;-63
2023/05/14 12:27:26;;;;;;;16.40;13.43;;;33.20;99.90;;;;;;5072616;28;20278;-66
2023/05/14 12:29:59;;;;;;;14.55;12.07;;;33.30;99.90;;;;;;5057191;28;20021;-66
2023/05/14 12:32:25;;;;;;;13.15;11.85;;;33.80;99.90;;;;;;5056581;28;20028;-71